Flight Track Log - Related Links

Times and Time Zones

All times are in EDT time to prevent confusion due to time zone crossing. See the SWA36 flight status page for this flight to view local times or setup timezone preferences in your user account.

Time Position Orientation Groundspeed Altitude Reporting Facility
EDT Latitude Longitude Course Direction KTS MPH feet Rate Location/Type
04:05PM 29.6356 -95.2675 115° Southeast 143 165 600  Level Houston Center
04:05PM 29.6314 -95.2572 115° Southeast 154 177 1,100 1,837 Climbing Houston Center
04:06PM 29.6564 -95.2433 26° Northeast 194 223 2,100 2,129 Climbing Houston Center
04:06PM 29.6792 -95.2517 342° North 208 239 3,300 3,148 Climbing Houston Center
04:07PM 29.7172 -95.2647 343° North 255 293 5,300 3,097 Climbing Houston Center
04:07PM 29.7450 -95.2725 346° North 235 270 6,500 3,148 Climbing Houston Center
04:08PM 29.7864 -95.2853 345° North 271 312 8,500 3,774 Climbing Houston Center
04:08PM 29.8181 -95.2936 347° North 259 298 10,400 3,443 Climbing Houston Center
04:09PM 29.8572 -95.3031 348° North 262 302 12,000 2,129 Climbing Houston Center
04:09PM 29.8919 -95.3114 348° North 268 308 12,600 2,438 Climbing Houston Center
04:10PM 29.9953 -95.3378 348° North 314 361 15,900 2,952 Climbing Houston Center
04:11PM 30.0875 -95.3625 347° North 337 388 18,700 2,448 Climbing Houston Center
04:12PM 30.1817 -95.3858 348° North 345 397 21,000 1,824 Climbing Houston Center
04:13PM 30.2814 -95.4122 347° North 363 418 22,500 1,597 Climbing Houston Center
04:14PM 30.3900 -95.4406 347° North 396 456 24,300 1,742 Climbing Houston Center
04:15PM 30.5000 -95.4667 348° North 402 463 26,100 1,935 Climbing Houston Center
04:17PM 30.6361 -95.4975 349° North 415 478 28,300 1,887 Climbing Houston Center
04:18PM 30.7544 -95.5247 349° North 407 468 30,000 823 Climbing Houston Center
04:19PM 30.8703 -95.5522 348° North 420 483 30,000  Level Houston Center
04:20PM 30.9892 -95.5786 349° North 430 495 30,000  Level Houston Center
04:21PM 31.1072 -95.6067 348° North 429 494 30,000  Level Houston Center
04:22PM 31.2261 -95.6328 349° North 431 496 30,000  Level Houston Center
04:23PM 31.3703 -95.6689 348° North 428 493 30,000  Level Fort Worth Center
04:24PM 31.4736 -95.7350 331° Northwest 421 484 30,000  Level Fort Worth Center
04:25PM 31.5767 -95.8039 330° Northwest 421 484 30,000 -1,100 Level Fort Worth Center
04:26PM 31.6778 -95.8706 331° Northwest 422 486 27,800 -2,600 Descending Fort Worth Center
04:27PM 31.7831 -95.9372 332° Northwest 417 480 24,800 -2,750 Descending Fort Worth Center
04:28PM 31.8797 -96.0042 330° Northwest 417 480 22,300 -2,450 Descending Fort Worth Center
04:29PM 31.9722 -96.0639 331° Northwest 393 452 19,900 -2,150 Descending Fort Worth Center
04:30PM 32.0522 -96.1142 332° Northwest 370 426 18,000 -2,000 Descending Fort Worth Center
04:31PM 32.1342 -96.1719 329° Northwest 359 413 15,900 -2,100 Descending Fort Worth Center
04:32PM 32.2119 -96.2200 332° Northwest 330 380 13,800 -2,150 Descending Fort Worth Center
04:33PM 32.2939 -96.2756 330° Northwest 316 364 11,600 -1,750 Descending Fort Worth Center
04:34PM 32.3672 -96.3239 331° Northwest 310 357 10,300 -1,250 Descending Fort Worth Center
04:35PM 32.4303 -96.3647 331° Northwest 272 313 9,100 -600 Descending Fort Worth Center
04:36PM 32.4933 -96.4036 333° Northwest 266 306 9,100 -50 Level Fort Worth Center
04:37PM 32.5603 -96.4447 333° Northwest 266 306 9,000 -800 Descending Fort Worth Center
04:38PM 32.6294 -96.4858 333° Northwest 266 306 7,500 -1,650 Descending Fort Worth Center
04:39PM 32.6864 -96.5397 321° Northwest 266 306 5,700 -1,250 Descending Fort Worth Center
04:40PM 32.7347 -96.6008 313° West 266 306 5,000 -300 Descending Fort Worth Center
04:41PM 32.7811 -96.6597 313° West 266 306 5,100 77 Climbing Fort Worth Center
04:41PM 32.8000 -96.6833 314° West 270 311 5,100 -357 Level Dallas / Fort Worth TRACON
04:42PM 32.8500 -96.7667 306° West 281 323 4,600 -619 Descending Dallas / Fort Worth TRACON
04:43PM 32.9000 -96.8167 320° Northwest 257 296 3,800 -650 Descending Dallas / Fort Worth TRACON
04:44PM 32.9500 -96.8667 320° Northwest 195 224 3,300 -476 Descending Dallas / Fort Worth TRACON
04:45PM 32.9667 -96.9333 287° West 193 222 2,800 -350 Descending Dallas / Fort Worth TRACON
04:46PM 32.9333 -96.9333 180° South 177 204 2,600 -579 Descending Dallas / Fort Worth TRACON
04:47PM 32.9000 -96.9000 140° Southeast 146 168 1,700 -900 Descending Dallas / Fort Worth TRACON
04:48PM 32.8667 -96.8667 140° Southeast 134 154 800 -900 Descending Dallas / Fort Worth TRACON
04:50PM 32.8471 -96.8518 301° West  Level Estimated
04:57PM 32.8471 -96.8518 301° West  Level Estimated

Login

Don't have an account? Register now (free) for customized features, flight alerts, and more!